Weather at Hierro Airport

Public forecast

Using degrees Celsius for public forecast. Weather courtesy of forecast.io.

Current aviation weather report (METAR) for Hierro Airport

Retrieved 2021/01/15 14:30 UTC (0 seconds ago):

GCHI 151430Z 04018KT 9999 FEW050 19/10 Q1026

Aviation forecast (TAF) for Hierro Airport

Retrieved 2021/01/15 15:00 UTC (0 seconds ago):

TAF GCHI 151400Z 1515/1615 05017KT 9999 SCT040 TX20/1614Z TN18/1607Z PROB30 TEMPO 1515/1615 04015G25KT